sensor_id;sensor_type;location;lat;lon;timestamp;temperature;humidity
69944;DHT22;57257;48.408;-4.498;2023-03-01T17:52:43;8.81;57.00
69944;DHT22;57257;48.408;-4.498;2023-03-01T17:55:09;8.88;56.93
69944;DHT22;57257;48.408;-4.498;2023-03-01T17:57:37;9.04;57.48
69944;DHT22;57257;48.408;-4.498;2023-03-01T18:00:05;9.13;56.97
69944;DHT22;57257;48.408;-4.498;2023-03-01T18:02:31;9.18;56.80
69944;DHT22;57257;48.408;-4.498;2023-03-01T18:04:57;9.24;56.68
69944;DHT22;57257;48.408;-4.498;2023-03-01T18:07:25;9.28;56.76
69944;DHT22;57257;48.408;-4.498;2023-03-01T18:09:51;9.31;56.86
69944;DHT22;57257;48.408;-4.498;2023-03-01T18:12:16;9.35;56.54
69944;DHT22;57257;48.408;-4.498;2023-03-01T18:14:42;9.38;56.46
69944;DHT22;57257;48.408;-4.498;2023-03-01T18:17:07;9.42;56.53
69944;DHT22;57257;48.408;-4.498;2023-03-01T18:19:37;9.39;56.19
69944;DHT22;57257;48.408;-4.498;2023-03-01T18:22:06;9.42;56.08
69944;DHT22;57257;48.408;-4.498;2023-03-01T18:24:31;9.41;56.21
69944;DHT22;57257;48.408;-4.498;2023-03-01T18:26:57;9.42;56.25
69944;DHT22;57257;48.408;-4.498;2023-03-01T18:29:22;9.44;56.12
69944;DHT22;57257;48.408;-4.498;2023-03-01T18:31:48;9.41;55.77
69944;DHT22;57257;48.408;-4.498;2023-03-01T18:34:13;9.38;55.09
69944;DHT22;57257;48.408;-4.498;2023-03-01T18:36:39;9.34;55.25
69944;DHT22;57257;48.408;-4.498;2023-03-01T18:39:05;9.34;55.29
69944;DHT22;57257;48.408;-4.498;2023-03-01T18:41:31;9.28;54.77
69944;DHT22;57257;48.408;-4.498;2023-03-01T18:43:57;9.27;54.41
69944;DHT22;57257;48.408;-4.498;2023-03-01T18:46:23;9.27;54.19
69944;DHT22;57257;48.408;-4.498;2023-03-01T18:48:50;9.25;54.47
69944;DHT22;57257;48.408;-4.498;2023-03-01T18:51:19;9.24;54.29
69944;DHT22;57257;48.408;-4.498;2023-03-01T18:53:45;9.24;54.38
69944;DHT22;57257;48.408;-4.498;2023-03-01T18:56:11;9.28;54.58
69944;DHT22;57257;48.408;-4.498;2023-03-01T18:58:37;9.25;54.56
69944;DHT22;57257;48.408;-4.498;2023-03-01T19:01:03;9.27;54.46
69944;DHT22;57257;48.408;-4.498;2023-03-01T19:03:35;9.30;54.26
69944;DHT22;57257;48.408;-4.498;2023-03-01T19:06:00;9.25;54.57
69944;DHT22;57257;48.408;-4.498;2023-03-01T19:08:27;9.24;54.37
69944;DHT22;57257;48.408;-4.498;2023-03-01T19:10:59;9.21;54.70
69944;DHT22;57257;48.408;-4.498;2023-03-01T19:13:26;9.23;54.90
69944;DHT22;57257;48.408;-4.498;2023-03-01T19:15:52;9.20;55.04
69944;DHT22;57257;48.408;-4.498;2023-03-01T19:18:17;9.23;55.12
69944;DHT22;57257;48.408;-4.498;2023-03-01T19:20:43;9.20;55.31
69944;DHT22;57257;48.408;-4.498;2023-03-01T19:23:08;9.21;55.44
69944;DHT22;57257;48.408;-4.498;2023-03-01T19:25:34;9.24;55.52
69944;DHT22;57257;48.408;-4.498;2023-03-01T19:28:00;9.24;55.45
69944;DHT22;57257;48.408;-4.498;2023-03-01T19:30:25;9.24;55.58
69944;DHT22;57257;48.408;-4.498;2023-03-01T19:32:52;9.23;55.68
69944;DHT22;57257;48.408;-4.498;2023-03-01T19:35:17;9.24;55.83
69944;DHT22;57257;48.408;-4.498;2023-03-01T19:37:43;9.28;55.89
69944;DHT22;57257;48.408;-4.498;2023-03-01T19:40:09;9.28;55.76
69944;DHT22;57257;48.408;-4.498;2023-03-01T19:42:34;9.30;55.64
69944;DHT22;57257;48.408;-4.498;2023-03-01T19:45:00;9.25;55.78
69944;DHT22;57257;48.408;-4.498;2023-03-01T19:47:25;9.28;56.03
69944;DHT22;57257;48.408;-4.498;2023-03-01T19:49:51;9.25;56.11
69944;DHT22;57257;48.408;-4.498;2023-03-01T19:52:16;9.27;56.21
69944;DHT22;57257;48.408;-4.498;2023-03-01T19:54:41;9.25;56.10
69944;DHT22;57257;48.408;-4.498;2023-03-01T19:57:07;9.28;56.34
69944;DHT22;57257;48.408;-4.498;2023-03-01T19:59:32;9.25;56.30
69944;DHT22;57257;48.408;-4.498;2023-03-01T20:01:58;9.21;56.38
69944;DHT22;57257;48.408;-4.498;2023-03-01T20:04:23;9.21;56.20
69944;DHT22;57257;48.408;-4.498;2023-03-01T20:06:49;9.20;56.12
69944;DHT22;57257;48.408;-4.498;2023-03-01T20:09:15;9.20;56.23
69944;DHT22;57257;48.408;-4.498;2023-03-01T20:11:41;9.24;56.26
69944;DHT22;57257;48.408;-4.498;2023-03-01T20:14:08;9.24;56.11
69944;DHT22;57257;48.408;-4.498;2023-03-01T20:16:37;9.27;56.00
69944;DHT22;57257;48.408;-4.498;2023-03-01T20:19:02;9.31;56.00
69944;DHT22;57257;48.408;-4.498;2023-03-01T20:21:28;9.32;55.99
69944;DHT22;57257;48.408;-4.498;2023-03-01T20:23:54;9.30;55.47
69944;DHT22;57257;48.408;-4.498;2023-03-01T20:26:21;9.30;55.83
69944;DHT22;57257;48.408;-4.498;2023-03-01T20:28:48;9.35;55.88
69944;DHT22;57257;48.408;-4.498;2023-03-01T20:31:15;9.35;55.76
69944;DHT22;57257;48.408;-4.498;2023-03-01T20:33:42;9.38;55.74
69944;DHT22;57257;48.408;-4.498;2023-03-01T20:36:09;9.38;55.82
69944;DHT22;57257;48.408;-4.498;2023-03-01T20:38:35;9.39;55.87
69944;DHT22;57257;48.408;-4.498;2023-03-01T20:41:06;9.41;55.78
69944;DHT22;57257;48.408;-4.498;2023-03-01T20:43:33;9.39;55.83
69944;DHT22;57257;48.408;-4.498;2023-03-01T20:46:05;9.41;55.75
69944;DHT22;57257;48.408;-4.498;2023-03-01T20:48:31;9.39;55.58
69944;DHT22;57257;48.408;-4.498;2023-03-01T20:50:56;9.39;55.62
69944;DHT22;57257;48.408;-4.498;2023-03-01T20:53:28;9.41;55.57
69944;DHT22;57257;48.408;-4.498;2023-03-01T20:55:53;9.42;55.72
69944;DHT22;57257;48.408;-4.498;2023-03-01T20:58:19;9.44;55.53
69944;DHT22;57257;48.408;-4.498;2023-03-01T21:00:44;9.44;55.61
69944;DHT22;57257;48.408;-4.498;2023-03-01T21:03:10;9.44;55.15
69944;DHT22;57257;48.408;-4.498;2023-03-01T21:05:35;9.41;55.61
69944;DHT22;57257;48.408;-4.498;2023-03-01T21:08:01;9.42;55.61
69944;DHT22;57257;48.408;-4.498;2023-03-01T21:10:28;9.44;55.68
69944;DHT22;57257;48.408;-4.498;2023-03-01T21:12:53;9.44;55.62
69944;DHT22;57257;48.408;-4.498;2023-03-01T21:15:19;9.46;55.55
69944;DHT22;57257;48.408;-4.498;2023-03-01T21:17:44;9.44;55.89
69944;DHT22;57257;48.408;-4.498;2023-03-01T21:20:10;9.46;55.96
69944;DHT22;57257;48.408;-4.498;2023-03-01T21:22:36;9.44;55.81
69944;DHT22;57257;48.408;-4.498;2023-03-01T21:25:01;9.44;55.78
69944;DHT22;57257;48.408;-4.498;2023-03-01T21:27:27;9.39;56.02
69944;DHT22;57257;48.408;-4.498;2023-03-01T21:29:52;9.39;56.04
69944;DHT22;57257;48.408;-4.498;2023-03-01T21:32:18;9.41;56.12
69944;DHT22;57257;48.408;-4.498;2023-03-01T21:34:44;9.41;56.17
69944;DHT22;57257;48.408;-4.498;2023-03-01T21:37:10;9.39;56.06
69944;DHT22;57257;48.408;-4.498;2023-03-01T21:39:36;9.39;56.21
69944;DHT22;57257;48.408;-4.498;2023-03-01T21:42:03;9.42;56.32
69944;DHT22;57257;48.408;-4.498;2023-03-01T21:44:30;9.42;56.16
69944;DHT22;57257;48.408;-4.498;2023-03-01T21:46:56;9.39;56.24
69944;DHT22;57257;48.408;-4.498;2023-03-01T21:49:23;9.42;56.40
69944;DHT22;57257;48.408;-4.498;2023-03-01T21:51:48;9.42;56.37
69944;DHT22;57257;48.408;-4.498;2023-03-01T21:54:16;9.42;56.50
69944;DHT22;57257;48.408;-4.498;2023-03-01T21:56:43;9.41;56.49
69944;DHT22;57257;48.408;-4.498;2023-03-01T21:59:14;9.39;56.52
69944;DHT22;57257;48.408;-4.498;2023-03-01T22:01:40;9.41;56.64
69944;DHT22;57257;48.408;-4.498;2023-03-01T22:04:06;9.39;56.68
69944;DHT22;57257;48.408;-4.498;2023-03-01T22:06:34;9.36;56.80
69944;DHT22;57257;48.408;-4.498;2023-03-01T22:09:17;9.38;56.84
69944;DHT22;57257;48.408;-4.498;2023-03-01T22:11:51;9.38;56.88
69944;DHT22;57257;48.408;-4.498;2023-03-01T22:14:27;9.41;56.95
69944;DHT22;57257;48.408;-4.498;2023-03-01T22:16:52;9.41;56.94
69944;DHT22;57257;48.408;-4.498;2023-03-01T22:19:18;9.41;56.88
69944;DHT22;57257;48.408;-4.498;2023-03-01T22:21:46;9.42;56.86
69944;DHT22;57257;48.408;-4.498;2023-03-01T22:24:14;9.42;56.80
69944;DHT22;57257;48.408;-4.498;2023-03-01T22:26:41;9.41;56.78
69944;DHT22;57257;48.408;-4.498;2023-03-01T22:29:14;9.41;56.79
69944;DHT22;57257;48.408;-4.498;2023-03-01T22:31:40;9.41;56.93
69944;DHT22;57257;48.408;-4.498;2023-03-01T22:34:06;9.41;56.94
69944;DHT22;57257;48.408;-4.498;2023-03-01T22:36:32;9.36;57.01
69944;DHT22;57257;48.408;-4.498;2023-03-01T22:38:58;9.32;57.16
69944;DHT22;57257;48.408;-4.498;2023-03-01T22:41:33;9.27;57.31
69944;DHT22;57257;48.408;-4.498;2023-03-01T22:43:58;9.24;57.43
69944;DHT22;57257;48.408;-4.498;2023-03-01T22:46:25;9.23;57.60
69944;DHT22;57257;48.408;-4.498;2023-03-01T22:48:50;9.21;57.71
69944;DHT22;57257;48.408;-4.498;2023-03-01T22:51:19;9.21;57.64
69944;DHT22;57257;48.408;-4.498;2023-03-01T22:53:45;9.25;57.72
69944;DHT22;57257;48.408;-4.498;2023-03-01T22:56:16;9.31;57.75
69944;DHT22;57257;48.408;-4.498;2023-03-01T22:58:42;9.28;57.78
69944;DHT22;57257;48.408;-4.498;2023-03-01T23:01:12;9.30;57.77
69944;DHT22;57257;48.408;-4.498;2023-03-01T23:03:39;9.31;57.75
69944;DHT22;57257;48.408;-4.498;2023-03-01T23:06:04;9.35;57.71
69944;DHT22;57257;48.408;-4.498;2023-03-01T23:08:30;9.35;57.65
69944;DHT22;57257;48.408;-4.498;2023-03-01T23:10:55;9.36;57.58
69944;DHT22;57257;48.408;-4.498;2023-03-01T23:13:21;9.36;57.53
69944;DHT22;57257;48.408;-4.498;2023-03-01T23:15:54;9.39;57.55
69944;DHT22;57257;48.408;-4.498;2023-03-01T23:18:20;9.34;57.56
69944;DHT22;57257;48.408;-4.498;2023-03-01T23:20:45;9.34;57.70
69944;DHT22;57257;48.408;-4.498;2023-03-01T23:23:11;9.31;57.74
69944;DHT22;57257;48.408;-4.498;2023-03-01T23:25:36;9.24;57.94
69944;DHT22;57257;48.408;-4.498;2023-03-01T23:28:02;9.20;57.98
69944;DHT22;57257;48.408;-4.498;2023-03-01T23:30:28;9.17;58.25
69944;DHT22;57257;48.408;-4.498;2023-03-01T23:32:54;9.17;58.20
69944;DHT22;57257;48.408;-4.498;2023-03-01T23:35:19;9.18;58.08
69944;DHT22;57257;48.408;-4.498;2023-03-01T23:37:44;9.11;58.14
69944;DHT22;57257;48.408;-4.498;2023-03-01T23:40:11;9.08;58.44
69944;DHT22;57257;48.408;-4.498;2023-03-01T23:42:37;9.07;58.38
69944;DHT22;57257;48.408;-4.498;2023-03-01T23:45:02;9.07;58.19
69944;DHT22;57257;48.408;-4.498;2023-03-01T23:47:28;9.07;58.06
69944;DHT22;57257;48.408;-4.498;2023-03-01T23:49:53;9.03;58.02
69944;DHT22;57257;48.408;-4.498;2023-03-01T23:52:21;9.01;58.08
69944;DHT22;57257;48.408;-4.498;2023-03-01T23:54:47;8.97;58.09
69944;DHT22;57257;48.408;-4.498;2023-03-01T23:57:12;8.91;58.32
69944;DHT22;57257;48.408;-4.498;2023-03-01T23:59:37;8.87;58.41
